New Port Richey, Florida
Current Conditions -  °F | °C
As of 2:15 PM on Saturday 20 Dec 2014 (Local Time) from KCLW Reporting Station
Broken Clouds Broken Clouds  
Wind Chill: 73°   Ceiling: 9500
Heat Index: 73°   Visibility: 10mi
Dew Point: 55°   Wind: 3mph
Humidity: 53%   Direction: 130°SE
Pressure: 30.03"   Gusts: NA
Location:  28.25°N, 82.72°W
Report Text: KCLW 201915Z AUTO 13003KT 10SM BKN095 23/13 A3003 RMK AO2
Loading
Personal Weather Stations






























Interactive Weather Map New forecast layout! Learn more

10-Day Weather Forecast

Advertisements
Track Severe Weather on mobile